sensor_id;sensor_type;location;lat;lon;timestamp;pressure;altitude;pressure_sealevel;temperature
64947;BMP280;51469;52.150;4.682;2022-12-10T00:01:42;101052.84;;;7.43
64947;BMP280;51469;52.150;4.682;2022-12-10T00:04:08;101047.06;;;7.44
64947;BMP280;51469;52.150;4.682;2022-12-10T00:06:35;101040.97;;;7.51
64947;BMP280;51469;52.150;4.682;2022-12-10T00:09:02;101041.34;;;7.49
64947;BMP280;51469;52.150;4.682;2022-12-10T00:11:28;101048.47;;;7.54
64947;BMP280;51469;52.150;4.682;2022-12-10T00:13:54;101042.34;;;7.57
64947;BMP280;51469;52.150;4.682;2022-12-10T00:16:23;101041.56;;;7.56
64947;BMP280;51469;52.150;4.682;2022-12-10T00:18:49;101048.72;;;7.49
64947;BMP280;51469;52.150;4.682;2022-12-10T00:21:18;101051.13;;;7.38
64947;BMP280;51469;52.150;4.682;2022-12-10T00:23:44;101048.84;;;7.40
64947;BMP280;51469;52.150;4.682;2022-12-10T00:26:12;101058.66;;;7.41
64947;BMP280;51469;52.150;4.682;2022-12-10T00:28:38;101053.13;;;7.53
64947;BMP280;51469;52.150;4.682;2022-12-10T00:31:09;101047.41;;;7.58
64947;BMP280;51469;52.150;4.682;2022-12-10T00:33:35;101033.78;;;7.58
64947;BMP280;51469;52.150;4.682;2022-12-10T00:36:09;101032.75;;;7.63
64947;BMP280;51469;52.150;4.682;2022-12-10T00:38:36;101039.00;;;7.63
64947;BMP280;51469;52.150;4.682;2022-12-10T00:41:02;101046.19;;;7.68
64947;BMP280;51469;52.150;4.682;2022-12-10T00:43:27;101048.09;;;7.67
64947;BMP280;51469;52.150;4.682;2022-12-10T00:45:53;101045.81;;;7.69
64947;BMP280;51469;52.150;4.682;2022-12-10T00:48:19;101045.81;;;7.69
64947;BMP280;51469;52.150;4.682;2022-12-10T00:51:04;101050.56;;;7.72
64947;BMP280;51469;52.150;4.682;2022-12-10T00:53:32;101049.91;;;7.63
64947;BMP280;51469;52.150;4.682;2022-12-10T00:55:57;101051.06;;;7.62
64947;BMP280;51469;52.150;4.682;2022-12-10T00:58:27;101052.66;;;7.63
64947;BMP280;51469;52.150;4.682;2022-12-10T01:00:52;101051.06;;;7.62
64947;BMP280;51469;52.150;4.682;2022-12-10T01:03:18;101048.38;;;7.50
64947;BMP280;51469;52.150;4.682;2022-12-10T01:05:43;101048.38;;;7.50
64947;BMP280;51469;52.150;4.682;2022-12-10T01:08:08;101057.03;;;7.52
64947;BMP280;51469;52.150;4.682;2022-12-10T01:10:34;101053.00;;;7.34
64947;BMP280;51469;52.150;4.682;2022-12-10T01:12:59;101057.66;;;7.34
64947;BMP280;51469;52.150;4.682;2022-12-10T01:15:27;101067.56;;;7.26
64947;BMP280;51469;52.150;4.682;2022-12-10T01:17:52;101070.88;;;7.20
64947;BMP280;51469;52.150;4.682;2022-12-10T01:20:18;101077.59;;;7.10
64947;BMP280;51469;52.150;4.682;2022-12-10T01:22:43;101076.00;;;6.97
64947;BMP280;51469;52.150;4.682;2022-12-10T01:25:09;101066.47;;;6.91
64947;BMP280;51469;52.150;4.682;2022-12-10T01:27:34;101066.00;;;6.89
64947;BMP280;51469;52.150;4.682;2022-12-10T01:29:59;101066.78;;;6.90
64947;BMP280;51469;52.150;4.682;2022-12-10T01:32:24;101071.69;;;6.84
64947;BMP280;51469;52.150;4.682;2022-12-10T01:34:50;101077.25;;;6.75
64947;BMP280;51469;52.150;4.682;2022-12-10T01:37:15;101077.16;;;6.72
64947;BMP280;51469;52.150;4.682;2022-12-10T01:39:41;101082.03;;;6.78
64947;BMP280;51469;52.150;4.682;2022-12-10T01:42:11;101081.22;;;6.78
64947;BMP280;51469;52.150;4.682;2022-12-10T01:47:05;101078.16;;;6.79
64947;BMP280;51469;52.150;4.682;2022-12-10T01:49:37;101089.19;;;6.83
64947;BMP280;51469;52.150;4.682;2022-12-10T01:52:04;101077.84;;;6.93
64947;BMP280;51469;52.150;4.682;2022-12-10T01:54:33;101081.59;;;6.89
64947;BMP280;51469;52.150;4.682;2022-12-10T01:57:02;101078.72;;;6.97
64947;BMP280;51469;52.150;4.682;2022-12-10T01:59:28;101080.81;;;7.00
64947;BMP280;51469;52.150;4.682;2022-12-10T02:02:20;101085.34;;;7.08
64947;BMP280;51469;52.150;4.682;2022-12-10T02:05:00;101088.41;;;7.07
64947;BMP280;51469;52.150;4.682;2022-12-10T02:12:52;101079.41;;;7.18
64947;BMP280;51469;52.150;4.682;2022-12-10T02:15:22;101077.34;;;7.15
64947;BMP280;51469;52.150;4.682;2022-12-10T02:17:53;101077.78;;;7.17
64947;BMP280;51469;52.150;4.682;2022-12-10T02:20:32;101073.03;;;7.14
64947;BMP280;51469;52.150;4.682;2022-12-10T02:23:03;101080.31;;;7.22
64947;BMP280;51469;52.150;4.682;2022-12-10T02:25:45;101080.97;;;7.19
64947;BMP280;51469;52.150;4.682;2022-12-10T02:28:20;101086.19;;;7.12
64947;BMP280;51469;52.150;4.682;2022-12-10T02:30:48;101083.94;;;7.14
64947;BMP280;51469;52.150;4.682;2022-12-10T02:33:16;101085.97;;;7.17
64947;BMP280;51469;52.150;4.682;2022-12-10T02:35:43;101085.75;;;7.22
64947;BMP280;51469;52.150;4.682;2022-12-10T02:38:16;101077.19;;;7.24
64947;BMP280;51469;52.150;4.682;2022-12-10T02:40:46;101091.19;;;7.34
64947;BMP280;51469;52.150;4.682;2022-12-10T02:43:13;101084.81;;;7.42
64947;BMP280;51469;52.150;4.682;2022-12-10T02:45:41;101085.00;;;7.49
64947;BMP280;51469;52.150;4.682;2022-12-10T02:48:08;101084.13;;;7.45
64947;BMP280;51469;52.150;4.682;2022-12-10T02:50:34;101084.81;;;7.42
64947;BMP280;51469;52.150;4.682;2022-12-10T02:53:00;101084.59;;;7.35
64947;BMP280;51469;52.150;4.682;2022-12-10T02:55:25;101087.38;;;7.23
64947;BMP280;51469;52.150;4.682;2022-12-10T03:00:23;101095.09;;;7.21
64947;BMP280;51469;52.150;4.682;2022-12-10T03:05:24;101098.66;;;7.37
64947;BMP280;51469;52.150;4.682;2022-12-10T03:07:55;101094.78;;;7.38
64947;BMP280;51469;52.150;4.682;2022-12-10T03:10:35;101091.84;;;7.43
64947;BMP280;51469;52.150;4.682;2022-12-10T03:13:06;101097.31;;;7.43
64947;BMP280;51469;52.150;4.682;2022-12-10T03:15:35;101096.88;;;7.29
64947;BMP280;51469;52.150;4.682;2022-12-10T03:18:04;101085.28;;;7.32
64947;BMP280;51469;52.150;4.682;2022-12-10T03:20:32;101077.09;;;7.20
64947;BMP280;51469;52.150;4.682;2022-12-10T03:22:57;101087.75;;;7.37
64947;BMP280;51469;52.150;4.682;2022-12-10T03:25:26;101083.00;;;7.34
64947;BMP280;51469;52.150;4.682;2022-12-10T03:27:55;101086.38;;;7.43
64947;BMP280;51469;52.150;4.682;2022-12-10T03:30:22;101072.09;;;7.34
64947;BMP280;51469;52.150;4.682;2022-12-10T03:32:48;101089.34;;;7.38
64947;BMP280;51469;52.150;4.682;2022-12-10T03:35:14;101077.56;;;7.34
64947;BMP280;51469;52.150;4.682;2022-12-10T03:37:41;101082.28;;;7.37
64947;BMP280;51469;52.150;4.682;2022-12-10T03:40:07;101088.22;;;7.27
64947;BMP280;51469;52.150;4.682;2022-12-10T03:42:35;101085.03;;;7.25
64947;BMP280;51469;52.150;4.682;2022-12-10T03:45:01;101078.00;;;7.24
64947;BMP280;51469;52.150;4.682;2022-12-10T03:47:26;101082.00;;;7.15
64947;BMP280;51469;52.150;4.682;2022-12-10T03:49:52;101078.94;;;7.16
64947;BMP280;51469;52.150;4.682;2022-12-10T03:52:17;101084.19;;;7.21
64947;BMP280;51469;52.150;4.682;2022-12-10T03:54:43;101087.44;;;7.27
64947;BMP280;51469;52.150;4.682;2022-12-10T03:57:08;101071.53;;;7.17
64947;BMP280;51469;52.150;4.682;2022-12-10T03:59:33;101085.38;;;7.36
64947;BMP280;51469;52.150;4.682;2022-12-10T04:01:59;101087.06;;;7.40
64947;BMP280;51469;52.150;4.682;2022-12-10T04:04:24;101086.09;;;7.33
64947;BMP280;51469;52.150;4.682;2022-12-10T04:06:49;101090.06;;;7.35
64947;BMP280;51469;52.150;4.682;2022-12-10T04:09:15;101089.34;;;7.38
64947;BMP280;51469;52.150;4.682;2022-12-10T04:11:41;101094.16;;;7.29
64947;BMP280;51469;52.150;4.682;2022-12-10T04:14:08;101088.22;;;7.27
64947;BMP280;51469;52.150;4.682;2022-12-10T04:16:52;101095.31;;;7.28
64947;BMP280;51469;52.150;4.682;2022-12-10T04:19:18;101095.78;;;7.18
64947;BMP280;51469;52.150;4.682;2022-12-10T04:21:44;101088.50;;;7.22
64947;BMP280;51469;52.150;4.682;2022-12-10T04:24:30;101077.09;;;7.20
64947;BMP280;51469;52.150;4.682;2022-12-10T04:27:22;101091.22;;;7.22
64947;BMP280;51469;52.150;4.682;2022-12-10T04:29:48;101093.56;;;7.24
64947;BMP280;51469;52.150;4.682;2022-12-10T04:32:14;101080.06;;;7.27
64947;BMP280;51469;52.150;4.682;2022-12-10T04:34:39;101081.19;;;7.26
64947;BMP280;51469;52.150;4.682;2022-12-10T04:37:05;101078.72;;;7.21
64947;BMP280;51469;52.150;4.682;2022-12-10T04:39:31;101076.47;;;7.23
64947;BMP280;51469;52.150;4.682;2022-12-10T04:41:57;101089.38;;;7.26
64947;BMP280;51469;52.150;4.682;2022-12-10T04:44:22;101090.75;;;7.32
64947;BMP280;51469;52.150;4.682;2022-12-10T04:46:48;101089.16;;;7.31
64947;BMP280;51469;52.150;4.682;2022-12-10T04:49:14;101097.56;;;7.26
64947;BMP280;51469;52.150;4.682;2022-12-10T04:51:40;101099.16;;;7.27
64947;BMP280;51469;52.150;4.682;2022-12-10T04:54:06;101083.25;;;7.29
64947;BMP280;51469;52.150;4.682;2022-12-10T04:56:31;101104.84;;;7.34
64947;BMP280;51469;52.150;4.682;2022-12-10T04:58:57;101104.72;;;7.31
64947;BMP280;51469;52.150;4.682;2022-12-10T05:01:23;101104.84;;;7.34
64947;BMP280;51469;52.150;4.682;2022-12-10T05:03:49;101099.63;;;7.17
64947;BMP280;51469;52.150;4.682;2022-12-10T05:06:16;101102.22;;;7.26
64947;BMP280;51469;52.150;4.682;2022-12-10T05:08:42;101097.69;;;7.30
64947;BMP280;51469;52.150;4.682;2022-12-10T05:11:10;101096.69;;;7.22
64947;BMP280;51469;52.150;4.682;2022-12-10T05:13:37;101095.97;;;7.25
64947;BMP280;51469;52.150;4.682;2022-12-10T05:16:04;101097.81;;;7.21
64947;BMP280;51469;52.150;4.682;2022-12-10T05:18:29;101090.97;;;7.27
64947;BMP280;51469;52.150;4.682;2022-12-10T05:20:58;101091.44;;;7.05
64947;BMP280;51469;52.150;4.682;2022-12-10T05:23:23;101088.94;;;7.12
64947;BMP280;51469;52.150;4.682;2022-12-10T05:26:06;101085.50;;;7.15
64947;BMP280;51469;52.150;4.682;2022-12-10T05:28:35;101079.28;;;7.15
64947;BMP280;51469;52.150;4.682;2022-12-10T05:31:01;101084.38;;;7.28
64947;BMP280;51469;52.150;4.682;2022-12-10T05:33:27;101086.44;;;7.31
64947;BMP280;51469;52.150;4.682;2022-12-10T05:36:03;101083.09;;;7.38
64947;BMP280;51469;52.150;4.682;2022-12-10T05:38:30;101092.53;;;7.40
64947;BMP280;51469;52.150;4.682;2022-12-10T05:41:00;101088.69;;;7.41
64947;BMP280;51469;52.150;4.682;2022-12-10T05:43:25;101083.31;;;7.45
64947;BMP280;51469;52.150;4.682;2022-12-10T05:45:50;101091.19;;;7.46
64947;BMP280;51469;52.150;4.682;2022-12-10T05:48:16;101084.19;;;7.49
64947;BMP280;51469;52.150;4.682;2022-12-10T05:50:42;101085.25;;;7.44
64947;BMP280;51469;52.150;4.682;2022-12-10T05:53:07;101092.84;;;7.51
64947;BMP280;51469;52.150;4.682;2022-12-10T05:55:33;101083.50;;;7.52
64947;BMP280;51469;52.150;4.682;2022-12-10T05:57:59;101078.97;;;7.56
64947;BMP280;51469;52.150;4.682;2022-12-10T06:00:26;101095.81;;;7.58
64947;BMP280;51469;52.150;4.682;2022-12-10T06:02:52;101076.94;;;7.53
64947;BMP280;51469;52.150;4.682;2022-12-10T06:05:17;101093.84;;;7.58
64947;BMP280;51469;52.150;4.682;2022-12-10T06:07:43;101099.53;;;7.53
64947;BMP280;51469;52.150;4.682;2022-12-10T06:10:08;101099.38;;;7.34
64947;BMP280;51469;52.150;4.682;2022-12-10T06:12:34;101106.75;;;7.46
64947;BMP280;51469;52.150;4.682;2022-12-10T06:14:59;101113.88;;;7.50
64947;BMP280;51469;52.150;4.682;2022-12-10T06:17:25;101117.56;;;7.42
64947;BMP280;51469;52.150;4.682;2022-12-10T06:19:50;101118.47;;;7.46
64947;BMP280;51469;52.150;4.682;2022-12-10T06:22:15;101116.16;;;7.48
64947;BMP280;51469;52.150;4.682;2022-12-10T06:24:41;101106.84;;;7.49
64947;BMP280;51469;52.150;4.682;2022-12-10T06:27:06;101112.78;;;7.39
64947;BMP280;51469;52.150;4.682;2022-12-10T06:29:31;101116.16;;;7.48
64947;BMP280;51469;52.150;4.682;2022-12-10T06:31:57;101110.19;;;7.43
64947;BMP280;51469;52.150;4.682;2022-12-10T06:34:22;101101.19;;;7.42
64947;BMP280;51469;52.150;4.682;2022-12-10T06:36:47;101123.00;;;7.42
64947;BMP280;51469;52.150;4.682;2022-12-10T06:39:13;101120.03;;;7.47
64947;BMP280;51469;52.150;4.682;2022-12-10T06:41:38;101123.34;;;7.53
64947;BMP280;51469;52.150;4.682;2022-12-10T06:44:07;101120.50;;;7.49
64947;BMP280;51469;52.150;4.682;2022-12-10T06:46:32;101137.34;;;7.51
64947;BMP280;51469;52.150;4.682;2022-12-10T06:48:58;101131.75;;;7.48
64947;BMP280;51469;52.150;4.682;2022-12-10T06:51:24;101135.03;;;7.53
64947;BMP280;51469;52.150;4.682;2022-12-10T06:53:49;101140.25;;;7.58
64947;BMP280;51469;52.150;4.682;2022-12-10T06:56:17;101131.19;;;7.54
64947;BMP280;51469;52.150;4.682;2022-12-10T06:58:43;101140.06;;;7.51
64947;BMP280;51469;52.150;4.682;2022-12-10T07:01:11;101151.97;;;7.59
64947;BMP280;51469;52.150;4.682;2022-12-10T07:03:37;101151.75;;;7.52
64947;BMP280;51469;52.150;4.682;2022-12-10T07:06:03;101147.31;;;7.47
64947;BMP280;51469;52.150;4.682;2022-12-10T07:08:29;101144.63;;;7.35
64947;BMP280;51469;52.150;4.682;2022-12-10T07:10:55;101150.44;;;7.22
64947;BMP280;51469;52.150;4.682;2022-12-10T07:13:21;101153.06;;;7.06
64947;BMP280;51469;52.150;4.682;2022-12-10T07:15:46;101151.00;;;7.15
64947;BMP280;51469;52.150;4.682;2022-12-10T07:18:11;101152.84;;;7.23
64947;BMP280;51469;52.150;4.682;2022-12-10T07:20:37;101148.06;;;7.20
64947;BMP280;51469;52.150;4.682;2022-12-10T07:23:02;101152.34;;;7.33
64947;BMP280;51469;52.150;4.682;2022-12-10T07:25:27;101156.00;;;7.37
64947;BMP280;51469;52.150;4.682;2022-12-10T07:27:53;101149.66;;;7.21
64947;BMP280;51469;52.150;4.682;2022-12-10T07:30:18;101159.19;;;7.27
64947;BMP280;51469;52.150;4.682;2022-12-10T07:32:43;101160.78;;;7.28
64947;BMP280;51469;52.150;4.682;2022-12-10T07:35:09;101157.59;;;7.26
64947;BMP280;51469;52.150;4.682;2022-12-10T07:37:34;101148.72;;;7.29
64947;BMP280;51469;52.150;4.682;2022-12-10T07:39:59;101146.22;;;7.12
64947;BMP280;51469;52.150;4.682;2022-12-10T07:42:25;101150.53;;;7.25
64947;BMP280;51469;52.150;4.682;2022-12-10T07:44:50;101150.53;;;7.25
64947;BMP280;51469;52.150;4.682;2022-12-10T07:47:15;101149.19;;;7.31
64947;BMP280;51469;52.150;4.682;2022-12-10T07:49:41;101160.31;;;7.38
64947;BMP280;51469;52.150;4.682;2022-12-10T07:52:08;101165.28;;;7.48
64947;BMP280;51469;52.150;4.682;2022-12-10T07:54:33;101173.06;;;7.46
64947;BMP280;51469;52.150;4.682;2022-12-10T07:56:59;101152.56;;;7.40
64947;BMP280;51469;52.150;4.682;2022-12-10T07:59:25;101164.44;;;7.32
64947;BMP280;51469;52.150;4.682;2022-12-10T08:01:51;101171.50;;;7.21
64947;BMP280;51469;52.150;4.682;2022-12-10T08:04:17;101181.47;;;7.17
64947;BMP280;51469;52.150;4.682;2022-12-10T08:06:42;101182.63;;;7.28
64947;BMP280;51469;52.150;4.682;2022-12-10T08:09:09;101170.09;;;7.15
64947;BMP280;51469;52.150;4.682;2022-12-10T08:11:35;101174.44;;;7.16
64947;BMP280;51469;52.150;4.682;2022-12-10T08:14:00;101177.03;;;7.25
64947;BMP280;51469;52.150;4.682;2022-12-10T08:16:27;101171.22;;;7.38
64947;BMP280;51469;52.150;4.682;2022-12-10T08:18:58;101176.69;;;7.38
64947;BMP280;51469;52.150;4.682;2022-12-10T08:21:26;101176.22;;;7.48
64947;BMP280;51469;52.150;4.682;2022-12-10T08:23:53;101181.47;;;7.41
64947;BMP280;51469;52.150;4.682;2022-12-10T08:26:21;101183.06;;;7.42
64947;BMP280;51469;52.150;4.682;2022-12-10T08:28:48;101194.44;;;7.44
64947;BMP280;51469;52.150;4.682;2022-12-10T08:31:15;101196.25;;;7.16
64947;BMP280;51469;52.150;4.682;2022-12-10T08:33:41;101196.94;;;7.37
64947;BMP280;51469;52.150;4.682;2022-12-10T08:36:08;101205.69;;;7.43
64947;BMP280;51469;52.150;4.682;2022-12-10T08:38:34;101200.81;;;7.36
64947;BMP280;51469;52.150;4.682;2022-12-10T08:41:05;101206.47;;;7.43
64947;BMP280;51469;52.150;4.682;2022-12-10T08:43:31;101201.50;;;7.57
64947;BMP280;51469;52.150;4.682;2022-12-10T08:45:58;101206.00;;;7.65
64947;BMP280;51469;52.150;4.682;2022-12-10T08:48:23;101198.28;;;7.67
64947;BMP280;51469;52.150;4.682;2022-12-10T08:50:49;101204.88;;;7.66
64947;BMP280;51469;52.150;4.682;2022-12-10T08:53:14;101206.69;;;7.62
64947;BMP280;51469;52.150;4.682;2022-12-10T08:55:40;101216.81;;;7.62
64947;BMP280;51469;52.150;4.682;2022-12-10T08:58:05;101218.97;;;7.68
64947;BMP280;51469;52.150;4.682;2022-12-10T09:03:05;101226.22;;;7.76
64947;BMP280;51469;52.150;4.682;2022-12-10T09:05:31;101228.63;;;7.78
64947;BMP280;51469;52.150;4.682;2022-12-10T09:07:56;101226.50;;;7.59
64947;BMP280;51469;52.150;4.682;2022-12-10T09:10:21;101227.59;;;7.70
64947;BMP280;51469;52.150;4.682;2022-12-10T09:12:47;101237.63;;;7.66
64947;BMP280;51469;52.150;4.682;2022-12-10T09:15:12;101235.13;;;7.73
64947;BMP280;51469;52.150;4.682;2022-12-10T09:17:38;101222.38;;;7.77
64947;BMP280;51469;52.150;4.682;2022-12-10T09:20:04;101235.56;;;7.87
64947;BMP280;51469;52.150;4.682;2022-12-10T09:22:29;101227.03;;;7.89
64947;BMP280;51469;52.150;4.682;2022-12-10T09:24:55;101233.69;;;7.91
64947;BMP280;51469;52.150;4.682;2022-12-10T09:27:20;101239.28;;;7.95
64947;BMP280;51469;52.150;4.682;2022-12-10T09:29:46;101237.81;;;7.97
64947;BMP280;51469;52.150;4.682;2022-12-10T09:32:11;101247.94;;;7.97
64947;BMP280;51469;52.150;4.682;2022-12-10T09:34:36;101247.81;;;8.05
64947;BMP280;51469;52.150;4.682;2022-12-10T09:37:02;101248.75;;;7.97
64947;BMP280;51469;52.150;4.682;2022-12-10T09:39:27;101243.28;;;7.97
64947;BMP280;51469;52.150;4.682;2022-12-10T09:42:22;101238.69;;;8.01
64947;BMP280;51469;52.150;4.682;2022-12-10T09:51:01;101246.19;;;8.04
64947;BMP280;51469;52.150;4.682;2022-12-10T09:53:26;101247.25;;;8.00
64947;BMP280;51469;52.150;4.682;2022-12-10T09:55:53;101244.16;;;8.01
64947;BMP280;51469;52.150;4.682;2022-12-10T09:58:24;101249.53;;;7.98
64947;BMP280;51469;52.150;4.682;2022-12-10T10:01:00;101248.06;;;8.00
64947;BMP280;51469;52.150;4.682;2022-12-10T10:03:26;101264.22;;;7.93
64947;BMP280;51469;52.150;4.682;2022-12-10T10:05:53;101252.81;;;8.03
64947;BMP280;51469;52.150;4.682;2022-12-10T10:08:33;101262.38;;;8.09
64947;BMP280;51469;52.150;4.682;2022-12-10T10:11:00;101255.78;;;7.98
64947;BMP280;51469;52.150;4.682;2022-12-10T10:13:38;101265.13;;;7.97
64947;BMP280;51469;52.150;4.682;2022-12-10T10:16:26;101263.31;;;7.89
64947;BMP280;51469;52.150;4.682;2022-12-10T10:19:04;101260.09;;;7.99
64947;BMP280;51469;52.150;4.682;2022-12-10T10:21:35;101262.38;;;8.09
64947;BMP280;51469;52.150;4.682;2022-12-10T10:24:02;101262.38;;;8.09
64947;BMP280;51469;52.150;4.682;2022-12-10T10:26:28;101261.94;;;8.07
64947;BMP280;51469;52.150;4.682;2022-12-10T10:28:58;101267.28;;;8.04
64947;BMP280;51469;52.150;4.682;2022-12-10T10:31:27;101265.91;;;7.98
64947;BMP280;51469;52.150;4.682;2022-12-10T10:34:01;101264.22;;;7.93
64947;BMP280;51469;52.150;4.682;2022-12-10T10:36:30;101265.03;;;7.94
64947;BMP280;51469;52.150;4.682;2022-12-10T10:38:56;101260.53;;;8.01
64947;BMP280;51469;52.150;4.682;2022-12-10T10:41:23;101266.25;;;8.08
64947;BMP280;51469;52.150;4.682;2022-12-10T10:43:58;101259.84;;;8.16
64947;BMP280;51469;52.150;4.682;2022-12-10T10:46:25;101265.31;;;8.04
64947;BMP280;51469;52.150;4.682;2022-12-10T10:48:50;101268.31;;;7.99
64947;BMP280;51469;52.150;4.682;2022-12-10T10:51:21;101266.59;;;7.95
64947;BMP280;51469;52.150;4.682;2022-12-10T10:53:52;101274.34;;;7.93
64947;BMP280;51469;52.150;4.682;2022-12-10T10:56:22;101275.84;;;7.90
64947;BMP280;51469;52.150;4.682;2022-12-10T10:59:02;101272.19;;;7.98
64947;BMP280;51469;52.150;4.682;2022-12-10T11:01:47;101271.72;;;8.08
64947;BMP280;51469;52.150;4.682;2022-12-10T11:04:15;101273.50;;;8.16
64947;BMP280;51469;52.150;4.682;2022-12-10T11:06:41;101269.84;;;8.12
64947;BMP280;51469;52.150;4.682;2022-12-10T11:09:07;101273.28;;;8.09
64947;BMP280;51469;52.150;4.682;2022-12-10T11:11:39;101274.91;;;8.10
64947;BMP280;51469;52.150;4.682;2022-12-10T11:16:46;101272.56;;;8.12
64947;BMP280;51469;52.150;4.682;2022-12-10T11:19:21;101274.19;;;8.13
64947;BMP280;51469;52.150;4.682;2022-12-10T11:21:47;101271.88;;;8.27
64947;BMP280;51469;52.150;4.682;2022-12-10T11:24:16;101266.84;;;8.29
64947;BMP280;51469;52.150;4.682;2022-12-10T11:27:06;101267.94;;;8.40
64947;BMP280;51469;52.150;4.682;2022-12-10T11:35:11;101257.91;;;8.44
64947;BMP280;51469;52.150;4.682;2022-12-10T11:37:42;101247.19;;;8.51
64947;BMP280;51469;52.150;4.682;2022-12-10T11:40:28;101256.59;;;8.38
64947;BMP280;51469;52.150;4.682;2022-12-10T11:43:08;101269.75;;;8.48
64947;BMP280;51469;52.150;4.682;2022-12-10T11:48:46;101256.13;;;8.36
64947;BMP280;51469;52.150;4.682;2022-12-10T11:51:29;101254.84;;;8.34
64947;BMP280;51469;52.150;4.682;2022-12-10T11:54:18;101253.66;;;8.31
64947;BMP280;51469;52.150;4.682;2022-12-10T11:56:48;101251.53;;;8.40
64947;BMP280;51469;52.150;4.682;2022-12-10T11:59:40;101251.97;;;8.42
64947;BMP280;51469;52.150;4.682;2022-12-10T12:02:30;101264.19;;;8.45
64947;BMP280;51469;52.150;4.682;2022-12-10T12:13:14;101258.13;;;8.51
64947;BMP280;51469;52.150;4.682;2022-12-10T12:15:57;101247.78;;;8.45
64947;BMP280;51469;52.150;4.682;2022-12-10T12:20:57;101247.69;;;8.41
64947;BMP280;51469;52.150;4.682;2022-12-10T12:31:36;101251.16;;;8.26
64947;BMP280;51469;52.150;4.682;2022-12-10T12:34:10;101245.00;;;8.29
64947;BMP280;51469;52.150;4.682;2022-12-10T12:36:38;101247.00;;;8.32
64947;BMP280;51469;52.150;4.682;2022-12-10T12:39:33;101247.69;;;8.41
64947;BMP280;51469;52.150;4.682;2022-12-10T12:44:54;101238.31;;;8.42
64947;BMP280;51469;52.150;4.682;2022-12-10T12:47:47;101241.91;;;8.58
64947;BMP280;51469;52.150;4.682;2022-12-10T12:50:24;101243.09;;;8.45
64947;BMP280;51469;52.150;4.682;2022-12-10T12:52:58;101238.91;;;8.63
64947;BMP280;51469;52.150;4.682;2022-12-10T12:56:27;101243.00;;;8.69
64947;BMP280;51469;52.150;4.682;2022-12-10T12:58:40;101248.06;;;8.55
64947;BMP280;51469;52.150;4.682;2022-12-10T13:03:42;101240.13;;;8.50
64947;BMP280;51469;52.150;4.682;2022-12-10T13:08:46;101242.06;;;8.65
64947;BMP280;51469;52.150;4.682;2022-12-10T13:11:28;101242.53;;;8.67
64947;BMP280;51469;52.150;4.682;2022-12-10T13:14:12;101244.13;;;8.68
64947;BMP280;51469;52.150;4.682;2022-12-10T13:22:02;101261.00;;;8.15
64947;BMP280;51469;52.150;4.682;2022-12-10T13:27:19;101263.00;;;8.30
64947;BMP280;51469;52.150;4.682;2022-12-10T13:30:05;101259.50;;;8.18
64947;BMP280;51469;52.150;4.682;2022-12-10T13:32:53;101269.81;;;8.24
64947;BMP280;51469;52.150;4.682;2022-12-10T13:35:27;101260.75;;;8.20
64947;BMP280;51469;52.150;4.682;2022-12-10T13:37:56;101272.56;;;8.24
64947;BMP280;51469;52.150;4.682;2022-12-10T13:46:50;101270.00;;;8.43
64947;BMP280;51469;52.150;4.682;2022-12-10T13:49:22;101250.78;;;8.40
64947;BMP280;51469;52.150;4.682;2022-12-10T13:51:55;101268.84;;;8.44
64947;BMP280;51469;52.150;4.682;2022-12-10T13:59:56;101288.41;;;8.58
64947;BMP280;51469;52.150;4.682;2022-12-10T14:05:13;101299.78;;;8.60
64947;BMP280;51469;52.150;4.682;2022-12-10T14:07:42;101296.66;;;8.62
64947;BMP280;51469;52.150;4.682;2022-12-10T14:10:14;101301.56;;;8.68
64947;BMP280;51469;52.150;4.682;2022-12-10T14:12:41;101305.19;;;8.72
64947;BMP280;51469;52.150;4.682;2022-12-10T14:15:15;101297.22;;;8.67
64947;BMP280;51469;52.150;4.682;2022-12-10T14:17:43;101294.97;;;8.69
64947;BMP280;51469;52.150;4.682;2022-12-10T14:20:16;101295.41;;;8.71
64947;BMP280;51469;52.150;4.682;2022-12-10T14:22:47;101295.47;;;8.59
64947;BMP280;51469;52.150;4.682;2022-12-10T14:25:22;101306.13;;;8.64
64947;BMP280;51469;52.150;4.682;2022-12-10T14:27:52;101306.41;;;8.59
64947;BMP280;51469;52.150;4.682;2022-12-10T14:30:20;101305.31;;;8.64
64947;BMP280;51469;52.150;4.682;2022-12-10T14:32:46;101295.19;;;8.64
64947;BMP280;51469;52.150;4.682;2022-12-10T14:35:17;101307.81;;;8.69
64947;BMP280;51469;52.150;4.682;2022-12-10T14:37:45;101292.72;;;8.59
64947;BMP280;51469;52.150;4.682;2022-12-10T14:40:27;101299.72;;;8.72
64947;BMP280;51469;52.150;4.682;2022-12-10T14:43:04;101302.72;;;8.67
64947;BMP280;51469;52.150;4.682;2022-12-10T14:45:41;101304.28;;;8.68
64947;BMP280;51469;52.150;4.682;2022-12-10T14:48:11;101297.84;;;8.61
64947;BMP280;51469;52.150;4.682;2022-12-10T14:50:38;101295.00;;;8.57
64947;BMP280;51469;52.150;4.682;2022-12-10T14:53:05;101287.25;;;8.59
64947;BMP280;51469;52.150;4.682;2022-12-10T14:55:37;101284.16;;;8.61
64947;BMP280;51469;52.150;4.682;2022-12-10T14:58:03;101294.09;;;8.53
64947;BMP280;51469;52.150;4.682;2022-12-10T15:00:30;101288.63;;;8.53
64947;BMP280;51469;52.150;4.682;2022-12-10T15:03:02;101289.53;;;8.57
64947;BMP280;51469;52.150;4.682;2022-12-10T15:05:32;101302.38;;;8.41
64947;BMP280;51469;52.150;4.682;2022-12-10T15:10:35;101302.38;;;8.41
64947;BMP280;51469;52.150;4.682;2022-12-10T15:13:02;101308.22;;;8.55
64947;BMP280;51469;52.150;4.682;2022-12-10T15:15:30;101310.78;;;8.48
64947;BMP280;51469;52.150;4.682;2022-12-10T15:18:00;101312.81;;;8.51
64947;BMP280;51469;52.150;4.682;2022-12-10T15:20:30;101303.22;;;8.45
64947;BMP280;51469;52.150;4.682;2022-12-10T15:23:08;101299.19;;;8.39
64947;BMP280;51469;52.150;4.682;2022-12-10T15:25:44;101296.91;;;8.41
64947;BMP280;51469;52.150;4.682;2022-12-10T15:28:25;101296.19;;;8.44
64947;BMP280;51469;52.150;4.682;2022-12-10T15:30:55;101302.38;;;8.41
64947;BMP280;51469;52.150;4.682;2022-12-10T15:33:31;101309.16;;;8.47
64947;BMP280;51469;52.150;4.682;2022-12-10T15:35:59;101302.91;;;8.47
64947;BMP280;51469;52.150;4.682;2022-12-10T15:38:24;101323.03;;;8.54
64947;BMP280;51469;52.150;4.682;2022-12-10T15:40:50;101311.13;;;8.47
64947;BMP280;51469;52.150;4.682;2022-12-10T15:45:49;101326.50;;;8.51
64947;BMP280;51469;52.150;4.682;2022-12-10T15:48:15;101323.28;;;8.49